createdAt,value
2017-12-14T00:00:21.306Z,92.44
2017-12-14T00:01:52.473Z,92.29
2017-12-14T00:03:19.734Z,92.45
2017-12-14T00:04:42.942Z,92.31
2017-12-14T00:06:10.095Z,92.41
2017-12-14T00:07:41.233Z,92.49
2017-12-14T00:09:04.478Z,92.67
2017-12-14T00:10:31.577Z,92.79
2017-12-14T00:11:58.905Z,92.81
2017-12-14T00:13:26.311Z,92.73
2017-12-14T00:14:53.723Z,92.75
2017-12-14T00:16:21.040Z,92.92
2017-12-14T00:17:48.237Z,92.88
2017-12-14T00:19:15.414Z,92.83
2017-12-14T00:20:46.519Z,92.88
2017-12-14T00:22:09.635Z,92.84
2017-12-14T00:23:40.684Z,92.68
2017-12-14T00:25:03.810Z,92.64
2017-12-14T00:26:34.990Z,92.59
2017-12-14T00:27:58.172Z,92.69
2017-12-14T00:29:25.422Z,92.66
2017-12-14T00:30:56.555Z,92.77
2017-12-14T00:32:23.913Z,92.59
2017-12-14T00:33:51.230Z,92.48
2017-12-14T00:35:14.340Z,92.57
2017-12-14T00:36:41.563Z,92.51
2017-12-14T00:38:08.787Z,92.66
2017-12-14T00:39:39.902Z,92.47
2017-12-14T00:41:02.970Z,92.77
2017-12-14T00:42:34.286Z,92.81
2017-12-14T00:44:01.547Z,92.83
2017-12-14T00:45:24.851Z,92.82
2017-12-14T00:46:56.147Z,92.83
2017-12-14T00:48:23.426Z,92.83
2017-12-14T00:49:46.531Z,92.64
2017-12-14T00:51:13.737Z,92.59
2017-12-14T00:52:44.891Z,92.62
2017-12-14T00:54:08.109Z,92.78
2017-12-14T00:55:35.247Z,92.78
2017-12-14T00:57:02.314Z,93.03
2017-12-14T00:58:29.699Z,93.11
2017-12-14T00:59:56.549Z,93.21
2017-12-14T01:01:23.912Z,93.48
2017-12-14T01:02:55.088Z,93.56
2017-12-14T01:04:18.429Z,93.88
2017-12-14T01:05:49.654Z,94.40
2017-12-14T01:07:16.801Z,94.59
2017-12-14T01:08:43.862Z,94.56
2017-12-14T01:10:06.955Z,94.47
2017-12-14T01:11:34.118Z,94.65
2017-12-14T01:13:01.279Z,94.86
2017-12-14T01:14:32.325Z,95.17
2017-12-14T01:15:55.574Z,95.37
2017-12-14T01:17:26.616Z,95.64
2017-12-14T01:18:53.871Z,95.97
2017-12-14T01:20:16.973Z,95.85
2017-12-14T01:21:44.238Z,96.22
2017-12-14T01:23:15.493Z,96.46
2017-12-14T01:24:38.637Z,96.77
2017-12-14T01:26:09.960Z,96.94
2017-12-14T01:27:33.135Z,97.42
2017-12-14T01:29:00.384Z,97.42
2017-12-14T01:30:31.756Z,97.41
2017-12-14T01:31:58.909Z,97.42
2017-12-14T01:33:21.993Z,97.32
2017-12-14T01:34:49.216Z,97.35
2017-12-14T01:36:20.196Z,97.40
2017-12-14T01:37:47.388Z,97.42
2017-12-14T01:39:10.633Z,97.31
2017-12-14T01:40:37.885Z,97.50
2017-12-14T01:42:05.080Z,97.17
2017-12-14T01:43:32.202Z,97.64
2017-12-14T01:45:03.306Z,98.00
2017-12-14T01:46:26.620Z,98.36
2017-12-14T01:47:57.775Z,98.88
2017-12-14T01:49:20.775Z,98.99
2017-12-14T01:50:47.949Z,98.26
2017-12-14T01:52:15.253Z,98.73
2017-12-14T01:53:46.269Z,99.02
2017-12-14T01:55:09.368Z,99.39
2017-12-14T01:56:36.430Z,99.48
2017-12-14T01:58:07.417Z,99.48
2017-12-14T01:59:30.539Z,99.63
2017-12-14T02:01:01.661Z,99.84
2017-12-14T02:02:25.093Z,99.90
2017-12-14T02:03:56.076Z,100.00
2017-12-14T02:05:19.339Z,100.00
2017-12-14T02:06:50.546Z,100.00
2017-12-14T02:08:13.838Z,100.00
2017-12-14T02:09:40.967Z,100.00
2017-12-14T02:11:08.177Z,99.82
2017-12-14T02:12:35.440Z,99.87
2017-12-14T02:14:06.279Z,100.00
2017-12-14T02:15:33.088Z,100.00
2017-12-14T02:17:00.140Z,100.00
2017-12-14T02:18:23.057Z,100.00
2017-12-14T02:19:50.034Z,100.00
2017-12-14T02:21:17.242Z,100.00
2017-12-14T02:22:44.364Z,100.00
2017-12-14T02:24:11.481Z,100.00
2017-12-14T02:25:42.607Z,100.00
2017-12-14T02:27:05.755Z,100.00
2017-12-14T02:28:36.865Z,100.00
2017-12-14T02:29:59.815Z,100.00
2017-12-14T02:31:30.843Z,99.97
2017-12-14T02:32:54.006Z,99.60
2017-12-14T02:34:25.246Z,99.70
2017-12-14T02:35:52.468Z,99.83
2017-12-14T02:37:15.751Z,99.82
2017-12-14T02:38:42.962Z,99.74
2017-12-14T02:40:14.205Z,99.79
2017-12-14T02:41:37.270Z,99.70
2017-12-14T02:43:04.399Z,99.52
2017-12-14T02:44:35.450Z,99.36
2017-12-14T02:45:58.629Z,99.21
2017-12-14T02:47:25.796Z,99.35
2017-12-14T02:48:57.024Z,99.42
2017-12-14T02:50:20.199Z,99.51
2017-12-14T02:51:47.510Z,99.42
2017-12-14T02:53:14.800Z,99.22
2017-12-14T02:54:41.992Z,98.97
2017-12-14T02:56:09.140Z,99.06
2017-12-14T02:57:40.170Z,99.00
2017-12-14T02:59:07.124Z,98.93
2017-12-14T03:00:30.261Z,98.93
2017-12-14T03:01:57.437Z,98.79
2017-12-14T03:03:24.640Z,98.87
2017-12-14T03:04:51.976Z,98.80
2017-12-14T03:06:19.049Z,98.90
2017-12-14T03:07:50.092Z,98.82
2017-12-14T03:09:13.429Z,98.71
2017-12-14T03:10:40.569Z,98.73
2017-12-14T03:12:11.786Z,98.83
2017-12-14T03:13:34.935Z,98.81
2017-12-14T03:15:05.827Z,98.86
2017-12-14T03:16:32.976Z,98.94
2017-12-14T03:18:00.306Z,98.93
2017-12-14T03:19:23.557Z,98.84
2017-12-14T03:20:54.724Z,98.86
2017-12-14T03:22:21.699Z,98.88
2017-12-14T03:23:44.879Z,98.59
2017-12-14T03:25:16.149Z,98.66
2017-12-14T03:26:39.464Z,98.75
2017-12-14T03:28:06.660Z,98.64
2017-12-14T03:29:33.729Z,98.70
2017-12-14T03:31:04.860Z,98.71
2017-12-14T03:32:28.087Z,98.80
2017-12-14T03:33:59.265Z,98.65
2017-12-14T03:35:22.558Z,98.64
2017-12-14T03:36:49.632Z,98.67
2017-12-14T03:38:16.846Z,98.75
2017-12-14T03:39:43.881Z,98.73
2017-12-14T03:41:11.099Z,98.66
2017-12-14T03:42:38.360Z,98.59
2017-12-14T03:44:09.475Z,98.37
2017-12-14T03:45:32.660Z,98.44
2017-12-14T03:46:59.850Z,98.48
2017-12-14T03:48:30.962Z,98.35
2017-12-14T03:49:54.208Z,98.41
2017-12-14T03:51:21.583Z,98.36
2017-12-14T03:52:52.746Z,98.35
2017-12-14T03:54:19.877Z,98.20
2017-12-14T03:55:47.144Z,98.07
2017-12-14T03:57:10.283Z,97.98
2017-12-14T03:58:37.553Z,97.99
2017-12-14T04:00:04.512Z,98.10
2017-12-14T04:01:35.680Z,98.21
2017-12-14T04:03:03.005Z,98.15
2017-12-14T04:04:30.095Z,98.13
2017-12-14T04:05:57.248Z,98.08
2017-12-14T04:07:20.317Z,98.04
2017-12-14T04:08:47.510Z,98.03
2017-12-14T04:10:14.897Z,97.96
2017-12-14T04:11:45.940Z,97.90
2017-12-14T04:13:13.150Z,97.92
2017-12-14T04:14:36.203Z,97.87
2017-12-14T04:16:03.355Z,97.93
2017-12-14T04:17:30.643Z,97.99
2017-12-14T04:19:01.805Z,98.03
2017-12-14T04:20:29.075Z,98.05
2017-12-14T04:21:52.327Z,98.14
2017-12-14T04:23:19.510Z,98.20
2017-12-14T04:24:46.588Z,98.21
2017-12-14T04:26:13.688Z,98.22
2017-12-14T04:27:40.965Z,98.27
2017-12-14T04:29:08.329Z,98.19
2017-12-14T04:30:39.299Z,98.24
2017-12-14T04:32:02.525Z,98.29
2017-12-14T04:33:29.804Z,98.32
2017-12-14T04:35:00.930Z,98.29
2017-12-14T04:36:28.144Z,98.35
2017-12-14T04:37:51.410Z,98.44
2017-12-14T04:39:18.546Z,98.45
2017-12-14T04:40:49.547Z,98.63
2017-12-14T04:42:12.777Z,98.72
2017-12-14T04:43:43.947Z,98.91
2017-12-14T04:45:07.189Z,98.99
2017-12-14T04:46:38.319Z,99.27
2017-12-14T04:48:05.324Z,99.47
2017-12-14T04:49:28.556Z,99.36
2017-12-14T04:50:59.749Z,99.58
2017-12-14T04:52:26.904Z,99.72
2017-12-14T04:53:54.139Z,99.76
2017-12-14T04:55:17.148Z,99.87
2017-12-14T04:56:44.372Z,99.82
2017-12-14T04:58:11.550Z,99.74
2017-12-14T04:59:38.455Z,99.76
2017-12-14T05:01:05.558Z,99.76
2017-12-14T05:02:36.520Z,99.69
2017-12-14T05:04:03.642Z,99.62
2017-12-14T05:05:30.643Z,99.58
2017-12-14T05:06:53.941Z,99.63
2017-12-14T05:08:25.203Z,99.54
2017-12-14T05:09:52.400Z,99.60
2017-12-14T05:11:19.637Z,99.38
2017-12-14T05:12:43.086Z,99.52
2017-12-14T05:14:10.202Z,99.40
2017-12-14T05:15:37.424Z,99.58
2017-12-14T05:17:04.641Z,99.62
2017-12-14T05:18:35.704Z,99.62
2017-12-14T05:19:59.009Z,99.89
2017-12-14T05:21:26.244Z,99.94
2017-12-14T05:22:53.816Z,99.88
2017-12-14T05:24:20.855Z,99.89
2017-12-14T05:25:47.977Z,100.00
2017-12-14T05:27:18.891Z,99.96
2017-12-14T05:28:42.132Z,99.84
2017-12-14T05:30:09.313Z,99.84
2017-12-14T05:31:36.649Z,99.90
2017-12-14T05:33:03.570Z,99.94
2017-12-14T05:34:30.776Z,99.86
2017-12-14T05:35:57.995Z,99.91
2017-12-14T05:37:29.427Z,99.96
2017-12-14T05:38:56.603Z,99.86
2017-12-14T05:40:19.569Z,99.95
2017-12-14T05:41:50.807Z,99.89
2017-12-14T05:43:13.930Z,99.84
2017-12-14T05:44:45.150Z,99.74
2017-12-14T05:46:08.424Z,99.64
2017-12-14T05:47:35.626Z,99.44
2017-12-14T05:49:06.670Z,99.65
2017-12-14T05:50:29.918Z,99.58
2017-12-14T05:51:57.339Z,99.63
2017-12-14T05:53:24.568Z,99.62
2017-12-14T05:54:51.713Z,99.59
2017-12-14T05:56:19.050Z,99.49
2017-12-14T05:57:50.294Z,99.47
2017-12-14T05:59:13.657Z,99.41
2017-12-14T06:00:40.762Z,99.38
2017-12-14T06:02:07.890Z,99.41
2017-12-14T06:03:39.031Z,99.42
2017-12-14T06:05:02.290Z,99.33
2017-12-14T06:06:33.525Z,99.23
2017-12-14T06:08:00.833Z,99.06
2017-12-14T06:09:28.296Z,99.06
2017-12-14T06:10:51.541Z,99.24
2017-12-14T06:12:22.959Z,99.11
2017-12-14T06:13:46.107Z,99.16
2017-12-14T06:15:17.241Z,99.17
2017-12-14T06:16:44.366Z,99.09
2017-12-14T06:18:07.418Z,99.10
2017-12-14T06:19:34.673Z,99.02
2017-12-14T06:21:05.670Z,98.80
2017-12-14T06:22:32.927Z,98.71
2017-12-14T06:23:56.003Z,98.32
2017-12-14T06:25:27.304Z,98.31
2017-12-14T06:26:54.439Z,98.20
2017-12-14T06:28:17.731Z,98.18
2017-12-14T06:29:44.798Z,98.27
2017-12-14T06:31:12.091Z,98.30
2017-12-14T06:32:39.305Z,98.30
2017-12-14T06:34:06.450Z,98.39
2017-12-14T06:35:33.494Z,98.08
2017-12-14T06:37:00.542Z,97.97
2017-12-14T06:38:27.719Z,97.76
2017-12-14T06:39:54.964Z,97.74
2017-12-14T06:41:25.985Z,97.56
2017-12-14T06:42:53.276Z,97.31
2017-12-14T06:44:16.376Z,97.13
2017-12-14T06:45:43.486Z,96.92
2017-12-14T06:47:10.740Z,96.68
2017-12-14T06:48:41.984Z,96.69
2017-12-14T06:50:05.128Z,96.42
2017-12-14T06:51:32.207Z,96.44
2017-12-14T06:52:59.520Z,96.13
2017-12-14T06:54:30.668Z,95.95
2017-12-14T06:55:57.708Z,95.89
2017-12-14T06:57:21.078Z,95.69
2017-12-14T06:58:52.316Z,95.88
2017-12-14T07:00:15.474Z,95.69
2017-12-14T07:01:42.712Z,95.45
2017-12-14T07:03:13.754Z,95.68
2017-12-14T07:04:36.920Z,95.72
2017-12-14T07:06:04.099Z,95.51
2017-12-14T07:07:35.349Z,95.22
2017-12-14T07:08:58.542Z,95.19
2017-12-14T07:10:29.570Z,95.19
2017-12-14T07:11:52.806Z,94.91
2017-12-14T07:13:23.767Z,94.72
2017-12-14T07:14:51.183Z,94.57
2017-12-14T07:16:14.388Z,94.42
2017-12-14T07:17:41.632Z,94.19
2017-12-14T07:19:08.803Z,94.13
2017-12-14T07:20:40.149Z,93.87
2017-12-14T07:22:07.150Z,93.84
2017-12-14T07:23:34.449Z,94.01
2017-12-14T07:25:01.660Z,93.94
2017-12-14T07:26:24.911Z,93.74
2017-12-14T07:27:56.164Z,93.64
2017-12-14T07:29:19.369Z,93.44
2017-12-14T07:30:50.657Z,93.44
2017-12-14T07:32:13.802Z,93.55
2017-12-14T07:33:41.096Z,93.67
2017-12-14T07:35:08.188Z,93.77
2017-12-14T07:36:35.324Z,93.61
2017-12-14T07:38:02.365Z,93.55
2017-12-14T07:39:33.610Z,93.38
2017-12-14T07:41:00.670Z,93.17
2017-12-14T07:42:27.950Z,93.02
2017-12-14T07:43:55.232Z,93.35
2017-12-14T07:45:18.299Z,93.21
2017-12-14T07:46:45.551Z,93.14
2017-12-14T07:48:12.706Z,93.33
2017-12-14T07:49:39.875Z,93.13
2017-12-14T07:51:06.992Z,92.99
2017-12-14T07:52:34.254Z,92.69
2017-12-14T07:54:01.191Z,92.65
2017-12-14T07:55:32.538Z,92.85
2017-12-14T07:56:59.881Z,93.08
2017-12-14T07:58:23.089Z,92.91
2017-12-14T07:59:54.200Z,93.28
2017-12-14T08:01:17.488Z,93.00
2017-12-14T08:02:44.720Z,92.86
2017-12-14T08:04:11.802Z,92.85
2017-12-14T08:05:38.933Z,92.79
2017-12-14T08:07:10.121Z,92.51
2017-12-14T08:08:33.359Z,92.55
2017-12-14T08:10:04.837Z,92.29
2017-12-14T08:11:32.026Z,92.25
2017-12-14T08:12:59.214Z,92.18
2017-12-14T08:14:22.493Z,92.14
2017-12-14T08:15:53.836Z,92.42
2017-12-14T08:17:17.007Z,92.21
2017-12-14T08:18:48.264Z,91.78
2017-12-14T08:20:15.576Z,91.83
2017-12-14T08:21:42.622Z,91.74
2017-12-14T08:23:05.931Z,91.66
2017-12-14T08:24:37.053Z,91.65
2017-12-14T08:26:04.312Z,91.51
2017-12-14T08:27:27.535Z,91.37
2017-12-14T08:28:58.728Z,91.58
2017-12-14T08:30:22.213Z,91.88
2017-12-14T08:31:49.412Z,92.09
2017-12-14T08:33:16.720Z,91.98
2017-12-14T08:34:43.891Z,92.07
2017-12-14T08:36:11.194Z,92.24
2017-12-14T08:37:42.515Z,91.94
2017-12-14T08:39:05.793Z,91.90
2017-12-14T08:40:37.002Z,92.04
2017-12-14T08:42:00.248Z,91.68
2017-12-14T08:43:31.400Z,91.65
2017-12-14T08:44:58.449Z,91.41
2017-12-14T08:46:25.726Z,91.31
2017-12-14T08:47:49.021Z,91.17
2017-12-14T08:49:16.198Z,91.25
2017-12-14T08:50:43.428Z,90.83
2017-12-14T08:52:14.693Z,90.96
2017-12-14T08:53:38.083Z,91.30
2017-12-14T08:55:05.317Z,91.23
2017-12-14T08:56:32.318Z,91.31
2017-12-14T08:57:59.566Z,90.95
2017-12-14T08:59:27.001Z,91.32
2017-12-14T09:00:54.288Z,91.30
2017-12-14T09:02:21.257Z,90.87
2017-12-14T09:03:52.274Z,90.95
2017-12-14T09:05:19.727Z,91.05
2017-12-14T09:06:46.910Z,90.88
2017-12-14T09:08:10.271Z,91.40
2017-12-14T09:09:37.575Z,91.28
2017-12-14T09:11:08.647Z,90.86
2017-12-14T09:12:31.634Z,91.00
2017-12-14T09:13:58.737Z,90.88
2017-12-14T09:15:26.063Z,90.85
2017-12-14T09:16:53.340Z,90.88
2017-12-14T09:18:24.533Z,90.62
2017-12-14T09:19:47.868Z,90.35
2017-12-14T09:21:18.828Z,90.45
2017-12-14T09:22:42.236Z,90.20
2017-12-14T09:24:13.618Z,89.88
2017-12-14T09:25:36.706Z,90.11
2017-12-14T09:27:07.925Z,90.38
2017-12-14T09:28:31.263Z,90.17
2017-12-14T09:29:58.560Z,90.29
2017-12-14T09:31:29.526Z,90.29
2017-12-14T09:32:52.919Z,90.26
2017-12-14T09:34:20.301Z,89.52
2017-12-14T09:35:47.650Z,89.83
2017-12-14T09:37:14.861Z,89.88
2017-12-14T09:38:46.146Z,89.94
2017-12-14T09:40:13.534Z,89.95
2017-12-14T09:41:40.789Z,89.77
2017-12-14T09:43:03.938Z,89.59
2017-12-14T09:44:31.328Z,89.67
2017-12-14T09:45:58.501Z,89.62
2017-12-14T09:47:25.865Z,89.61
2017-12-14T09:48:53.012Z,89.38
2017-12-14T09:50:24.294Z,89.40
2017-12-14T09:51:47.338Z,89.41
2017-12-14T09:53:14.559Z,89.46
2017-12-14T09:54:41.788Z,89.61
2017-12-14T09:56:09.076Z,89.61
2017-12-14T09:57:40.475Z,89.67
2017-12-14T09:59:07.506Z,89.85
2017-12-14T10:00:34.656Z,89.83
2017-12-14T10:02:01.834Z,89.71
2017-12-14T10:03:28.883Z,89.84
2017-12-14T10:04:52.174Z,90.02
2017-12-14T10:06:19.368Z,89.64
2017-12-14T10:07:46.490Z,89.46
2017-12-14T10:09:17.719Z,89.49
2017-12-14T10:10:40.936Z,89.56
2017-12-14T10:12:07.930Z,89.05
2017-12-14T10:13:34.916Z,88.83
2017-12-14T10:15:06.063Z,88.77
2017-12-14T10:16:33.342Z,88.87
2017-12-14T10:17:56.553Z,88.83
2017-12-14T10:19:27.594Z,88.83
2017-12-14T10:20:50.754Z,89.15
2017-12-14T10:22:18.038Z,88.71
2017-12-14T10:23:45.300Z,89.00
2017-12-14T10:25:12.575Z,89.14
2017-12-14T10:26:39.896Z,89.38
2017-12-14T10:28:07.139Z,89.15
2017-12-14T10:29:38.254Z,89.43
2017-12-14T10:31:01.814Z,89.26
2017-12-14T10:32:33.045Z,89.08
2017-12-14T10:34:00.410Z,89.06
2017-12-14T10:35:23.715Z,89.33
2017-12-14T10:36:54.864Z,89.40
2017-12-14T10:38:22.138Z,89.61
2017-12-14T10:39:45.336Z,89.75
2017-12-14T10:41:12.463Z,89.70
2017-12-14T10:42:39.532Z,89.54
2017-12-14T10:44:10.675Z,89.74
2017-12-14T10:45:33.992Z,89.52
2017-12-14T10:47:05.008Z,89.35
2017-12-14T10:48:28.436Z,89.18
2017-12-14T10:49:59.783Z,89.47
2017-12-14T10:51:23.095Z,89.34
2017-12-14T10:52:50.357Z,89.41
2017-12-14T10:54:21.694Z,89.47
2017-12-14T10:55:44.964Z,89.08
2017-12-14T10:57:12.146Z,89.16
2017-12-14T10:58:43.246Z,89.17
2017-12-14T11:00:10.570Z,89.04
2017-12-14T11:01:33.615Z,89.12
2017-12-14T11:03:04.699Z,89.28
2017-12-14T11:04:27.901Z,89.16
2017-12-14T11:05:58.943Z,89.36
2017-12-14T11:07:22.349Z,89.61
2017-12-14T11:08:49.788Z,89.38
2017-12-14T11:10:17.055Z,89.30
2017-12-14T11:11:44.234Z,89.00
2017-12-14T11:13:11.603Z,89.33
2017-12-14T11:14:43.000Z,88.95
2017-12-14T11:16:06.039Z,88.76
2017-12-14T11:17:33.277Z,88.36
2017-12-14T11:19:00.563Z,88.60
2017-12-14T11:21:58.855Z,88.42
2017-12-14T11:23:22.376Z,88.30
2017-12-14T11:24:53.613Z,88.14
2017-12-14T11:26:21.027Z,88.30
2017-12-14T11:27:44.280Z,88.25
2017-12-14T11:29:11.518Z,88.10
2017-12-14T11:30:38.777Z,88.12
2017-12-14T11:32:10.128Z,88.10
2017-12-14T11:33:33.064Z,88.07
2017-12-14T11:35:04.426Z,88.20
2017-12-14T11:36:31.523Z,88.34
2017-12-14T11:37:58.764Z,88.46
2017-12-14T11:39:21.692Z,88.66
2017-12-14T11:40:52.808Z,88.40
2017-12-14T11:42:16.101Z,88.47
2017-12-14T11:43:47.458Z,88.58
2017-12-14T11:45:10.591Z,88.67
2017-12-14T11:46:37.835Z,88.63
2017-12-14T11:48:09.181Z,87.95
2017-12-14T11:49:32.109Z,87.66
2017-12-14T11:51:03.511Z,87.71
2017-12-14T11:52:26.631Z,87.61
2017-12-14T11:53:53.943Z,87.65
2017-12-14T11:55:21.048Z,87.69
2017-12-14T11:56:48.333Z,88.03
2017-12-14T11:58:19.747Z,87.87
2017-12-14T11:59:46.904Z,87.91
2017-12-14T12:01:14.148Z,87.41
2017-12-14T12:02:37.520Z,87.02
2017-12-14T12:04:04.566Z,87.13
2017-12-14T12:05:31.775Z,86.83
2017-12-14T12:06:59.031Z,87.08
2017-12-14T12:08:26.421Z,86.92
2017-12-14T12:09:53.779Z,87.30
2017-12-14T12:11:20.863Z,86.90
2017-12-14T12:12:48.140Z,86.56
2017-12-14T12:14:15.456Z,86.24
2017-12-14T12:15:46.768Z,86.07
2017-12-14T12:17:10.024Z,85.38
2017-12-14T12:18:37.188Z,85.07
2017-12-14T12:20:08.163Z,84.94
2017-12-14T12:21:31.668Z,85.16
2017-12-14T12:23:02.998Z,85.03
2017-12-14T12:24:26.163Z,85.11
2017-12-14T12:25:57.325Z,84.81
2017-12-14T12:27:20.678Z,84.81
2017-12-14T12:28:48.050Z,84.54
2017-12-14T12:30:19.321Z,84.65
2017-12-14T12:31:46.691Z,85.25
2017-12-14T12:33:09.858Z,85.13
2017-12-14T12:34:37.214Z,85.64
2017-12-14T12:36:08.611Z,86.02
2017-12-14T12:37:35.511Z,86.30
2017-12-14T12:38:58.659Z,87.05
2017-12-14T12:40:30.058Z,87.56
2017-12-14T12:41:53.352Z,88.39
2017-12-14T12:43:20.673Z,88.37
2017-12-14T12:44:48.027Z,88.50
2017-12-14T12:46:19.314Z,88.42
2017-12-14T12:47:46.760Z,88.20
2017-12-14T12:49:09.934Z,87.73
2017-12-14T12:50:37.099Z,87.28
2017-12-14T12:52:03.942Z,86.87
2017-12-14T12:53:31.236Z,87.01
2017-12-14T12:55:02.453Z,87.05
2017-12-14T12:56:25.676Z,86.65
2017-12-14T12:57:53.018Z,86.57
2017-12-14T12:59:20.342Z,86.64
2017-12-14T13:00:51.677Z,86.16
2017-12-14T13:02:15.016Z,86.04
2017-12-14T13:03:42.399Z,85.84
2017-12-14T13:05:13.687Z,85.48
2017-12-14T13:06:36.978Z,85.66
2017-12-14T13:08:04.347Z,85.32
2017-12-14T13:09:31.907Z,85.47
2017-12-14T13:11:02.946Z,85.30
2017-12-14T13:12:26.228Z,84.99
2017-12-14T13:13:57.161Z,84.75
2017-12-14T13:15:24.440Z,85.52
2017-12-14T13:16:51.867Z,84.53
2017-12-14T13:18:15.021Z,85.16
2017-12-14T13:19:42.249Z,84.61
2017-12-14T13:21:09.556Z,84.02
2017-12-14T13:22:36.852Z,84.34
2017-12-14T13:24:08.031Z,84.30
2017-12-14T13:25:35.460Z,84.21
2017-12-14T13:27:02.657Z,84.47
2017-12-14T13:28:25.940Z,84.73
2017-12-14T13:29:56.945Z,84.74
2017-12-14T13:31:20.351Z,84.93
2017-12-14T13:32:51.777Z,85.01
2017-12-14T13:34:14.957Z,84.80
2017-12-14T13:35:46.139Z,84.63
2017-12-14T13:37:09.466Z,83.82
2017-12-14T13:38:36.746Z,83.85
2017-12-14T13:40:07.817Z,83.98
2017-12-14T13:41:31.171Z,84.41
2017-12-14T13:42:58.544Z,84.12
2017-12-14T13:44:25.772Z,84.17
2017-12-14T13:45:52.991Z,83.86
2017-12-14T13:47:20.260Z,84.19
2017-12-14T13:48:51.542Z,83.68
2017-12-14T13:50:18.961Z,84.42
2017-12-14T13:51:46.134Z,84.50
2017-12-14T13:53:09.349Z,85.02
2017-12-14T13:54:40.672Z,84.87
2017-12-14T13:56:03.840Z,84.99
2017-12-14T13:57:31.038Z,85.01
2017-12-14T13:58:58.216Z,84.86
2017-12-14T14:00:29.614Z,84.94
2017-12-14T14:01:56.895Z,84.45
2017-12-14T14:03:24.358Z,84.87
2017-12-14T14:04:47.381Z,84.76
2017-12-14T14:06:14.670Z,85.10
2017-12-14T14:07:45.977Z,84.39
2017-12-14T14:09:13.108Z,84.26
2017-12-14T14:10:36.430Z,84.44
2017-12-14T14:12:03.645Z,84.10
2017-12-14T14:13:30.813Z,84.08
2017-12-14T14:15:02.227Z,83.41
2017-12-14T14:16:29.448Z,83.83
2017-12-14T14:17:52.844Z,83.97
2017-12-14T14:19:20.228Z,84.31
2017-12-14T14:20:47.325Z,84.32
2017-12-14T14:22:14.558Z,84.18
2017-12-14T14:23:41.516Z,83.99
2017-12-14T14:25:12.673Z,84.00
2017-12-14T14:26:39.800Z,83.87
2017-12-14T14:28:02.844Z,83.66
2017-12-14T14:29:30.053Z,83.36
2017-12-14T14:31:01.384Z,83.94
2017-12-14T14:32:28.462Z,84.09
2017-12-14T14:33:55.653Z,84.35
2017-12-14T14:35:22.662Z,84.74
2017-12-14T14:36:45.828Z,84.22
2017-12-14T14:38:13.273Z,84.32
2017-12-14T14:39:40.538Z,84.49
2017-12-14T14:41:07.427Z,84.48
2017-12-14T14:42:38.743Z,84.53
2017-12-14T14:44:01.838Z,84.43
2017-12-14T14:45:29.087Z,84.50
2017-12-14T14:47:00.177Z,84.74
2017-12-14T14:48:23.421Z,84.92
2017-12-14T14:49:50.686Z,85.05
2017-12-14T14:51:17.881Z,84.21
2017-12-14T14:52:45.028Z,84.21
2017-12-14T14:54:16.162Z,84.04
2017-12-14T14:55:39.560Z,84.15
2017-12-14T14:57:10.699Z,83.96
2017-12-14T14:58:38.003Z,83.93
2017-12-14T15:00:01.165Z,84.05
2017-12-14T15:01:28.258Z,83.41
2017-12-14T15:02:59.417Z,83.46
2017-12-14T15:04:23.035Z,83.52
2017-12-14T15:05:50.267Z,83.63
2017-12-14T15:07:17.410Z,83.84
2017-12-14T15:08:44.629Z,83.70
2017-12-14T15:10:11.913Z,83.98
2017-12-14T15:11:43.318Z,84.12
2017-12-14T15:13:06.508Z,84.08
2017-12-14T15:14:33.706Z,84.04
2017-12-14T15:16:00.960Z,83.89
2017-12-14T15:17:28.326Z,84.43
2017-12-14T15:18:55.517Z,84.23
2017-12-14T15:20:22.799Z,84.38
2017-12-14T15:21:50.033Z,84.61
2017-12-14T15:23:17.106Z,84.73
2017-12-14T15:24:44.427Z,84.94
2017-12-14T15:26:15.727Z,84.88
2017-12-14T15:27:38.932Z,85.01
2017-12-14T15:29:06.120Z,85.02
2017-12-14T15:30:33.185Z,85.16
2017-12-14T15:32:00.345Z,85.30
2017-12-14T15:33:27.419Z,85.49
2017-12-14T15:34:54.699Z,85.45
2017-12-14T15:36:22.042Z,85.58
2017-12-14T15:37:49.255Z,85.66
2017-12-14T15:39:16.571Z,86.16
2017-12-14T15:40:43.930Z,86.64
2017-12-14T15:42:11.125Z,86.68
2017-12-14T15:43:42.482Z,87.10
2017-12-14T15:45:05.788Z,86.89
2017-12-14T15:46:33.086Z,87.25
2017-12-14T15:48:04.344Z,87.23
2017-12-14T15:49:27.510Z,87.22
2017-12-14T15:50:54.676Z,87.23
2017-12-14T15:52:21.909Z,87.14
2017-12-14T15:53:49.107Z,87.22
2017-12-14T15:55:16.189Z,87.30
2017-12-14T15:56:47.398Z,87.36
2017-12-14T15:58:10.571Z,87.23
2017-12-14T15:59:37.937Z,87.14
2017-12-14T16:01:05.147Z,87.46
2017-12-14T16:02:32.193Z,87.30
2017-12-14T16:03:59.495Z,87.32
2017-12-14T16:05:26.796Z,87.16
2017-12-14T16:06:54.073Z,87.13
2017-12-14T16:08:21.270Z,87.27
2017-12-14T16:09:48.607Z,87.19
2017-12-14T16:11:15.946Z,87.01
2017-12-14T16:12:43.051Z,87.01
2017-12-14T16:14:10.179Z,86.95
2017-12-14T16:15:41.130Z,86.78
2017-12-14T16:17:04.490Z,86.52
2017-12-14T16:18:35.788Z,86.52
2017-12-14T16:19:59.075Z,86.57
2017-12-14T16:21:30.343Z,86.59
2017-12-14T16:22:53.641Z,86.64
2017-12-14T16:24:21.134Z,86.79
2017-12-14T16:25:52.394Z,86.99
2017-12-14T16:27:15.764Z,87.12
2017-12-14T16:28:46.849Z,87.08
2017-12-14T16:30:09.762Z,86.99
2017-12-14T16:31:37.015Z,87.25
2017-12-14T16:33:04.196Z,87.32
2017-12-14T16:34:31.441Z,87.38
2017-12-14T16:36:02.702Z,87.20
2017-12-14T16:37:30.041Z,87.18
2017-12-14T16:38:57.454Z,87.29
2017-12-14T16:40:20.556Z,87.20
2017-12-14T16:41:51.693Z,87.33
2017-12-14T16:43:14.732Z,87.43
2017-12-14T16:44:42.169Z,87.65
2017-12-14T16:46:09.305Z,87.84
2017-12-14T16:47:36.658Z,88.06
2017-12-14T16:49:03.847Z,88.13
2017-12-14T16:50:31.127Z,88.45
2017-12-14T16:52:02.482Z,88.64
2017-12-14T16:53:25.724Z,88.64
2017-12-14T16:54:56.763Z,88.65
2017-12-14T16:56:24.037Z,88.42
2017-12-14T16:57:51.069Z,88.52
2017-12-14T16:59:14.447Z,88.57
2017-12-14T17:00:45.439Z,88.79
2017-12-14T17:02:12.675Z,88.75
2017-12-14T17:03:35.959Z,89.05
2017-12-14T17:05:07.163Z,89.07
2017-12-14T17:06:34.369Z,89.04
2017-12-14T17:08:01.550Z,89.20
2017-12-14T17:09:25.005Z,89.39
2017-12-14T17:10:52.359Z,89.54
2017-12-14T17:12:23.377Z,89.47
2017-12-14T17:13:46.708Z,89.57
2017-12-14T17:15:17.949Z,89.76
2017-12-14T17:16:40.959Z,89.82
2017-12-14T17:18:12.151Z,89.79
2017-12-14T17:19:35.469Z,89.82
2017-12-14T17:21:02.702Z,90.05
2017-12-14T17:22:33.870Z,90.08
2017-12-14T17:24:00.857Z,90.13
2017-12-14T17:25:28.137Z,89.98
2017-12-14T17:26:55.446Z,90.21
2017-12-14T17:28:18.829Z,90.33
2017-12-14T17:29:46.007Z,90.46
2017-12-14T17:31:13.213Z,90.53
2017-12-14T17:32:40.467Z,90.45
2017-12-14T17:34:07.625Z,90.37
2017-12-14T17:35:34.783Z,90.33
2017-12-14T17:37:05.832Z,90.41
2017-12-14T17:38:29.068Z,90.53
2017-12-14T17:39:56.494Z,90.35
2017-12-14T17:41:23.772Z,90.41
2017-12-14T17:42:51.045Z,90.24
2017-12-14T17:44:18.296Z,90.32
2017-12-14T17:45:45.477Z,90.32
2017-12-14T17:47:16.721Z,90.25
2017-12-14T17:48:43.933Z,90.25
2017-12-14T17:50:07.324Z,90.14
2017-12-14T17:51:34.609Z,90.08
2017-12-14T17:53:01.572Z,90.36
2017-12-14T17:54:28.879Z,90.42
2017-12-14T17:55:56.088Z,90.25
2017-12-14T17:57:23.490Z,90.33
2017-12-14T17:58:54.734Z,90.50
2017-12-14T18:00:17.983Z,90.38
2017-12-14T18:01:49.074Z,90.31
2017-12-14T18:03:12.417Z,90.34
2017-12-14T18:04:39.553Z,90.30
2017-12-14T18:06:06.850Z,90.27
2017-12-14T18:07:34.097Z,90.33
2017-12-14T18:09:05.178Z,89.93
2017-12-14T18:10:32.361Z,90.22
2017-12-14T18:11:55.309Z,89.79
2017-12-14T18:13:22.648Z,89.86
2017-12-14T18:14:53.907Z,89.62
2017-12-14T18:16:17.198Z,89.47
2017-12-14T18:17:44.420Z,89.36
2017-12-14T18:19:11.524Z,89.44
2017-12-14T18:20:38.533Z,89.83
2017-12-14T18:22:05.759Z,89.68
2017-12-14T18:23:32.986Z,89.81
2017-12-14T18:25:00.246Z,89.59
2017-12-14T18:26:31.437Z,89.94
2017-12-14T18:27:58.884Z,89.41
2017-12-14T18:29:22.120Z,89.26
2017-12-14T18:30:49.437Z,89.44
2017-12-14T18:32:20.619Z,89.10
2017-12-14T18:33:43.878Z,88.69
2017-12-14T18:35:11.029Z,88.91
2017-12-14T18:36:38.165Z,89.21
2017-12-14T18:38:05.411Z,88.94
2017-12-14T18:39:36.507Z,88.18
2017-12-14T18:40:59.821Z,87.89
2017-12-14T18:42:27.211Z,87.81
2017-12-14T18:43:54.263Z,87.57